createdAt,value
2022-10-06T00:01:10.834Z,17.90
2022-10-06T00:03:45.591Z,17.90
2022-10-06T00:06:20.099Z,17.80
2022-10-06T00:08:53.475Z,17.80
2022-10-06T00:11:26.773Z,17.70
2022-10-06T00:14:00.402Z,17.70
2022-10-06T00:16:35.325Z,17.70
2022-10-06T00:19:08.844Z,17.70
2022-10-06T00:21:42.668Z,17.60
2022-10-06T00:24:16.198Z,17.60
2022-10-06T00:26:49.491Z,17.60
2022-10-06T00:29:22.765Z,17.50
2022-10-06T00:31:57.500Z,17.50
2022-10-06T00:34:30.801Z,17.50
2022-10-06T00:37:04.212Z,17.50
2022-10-06T00:39:37.572Z,17.50
2022-10-06T00:42:24.383Z,17.40
2022-10-06T00:45:01.844Z,17.40
2022-10-06T00:47:36.927Z,17.40
2022-10-06T13:08:01.180Z,21.40
2022-10-06T13:10:35.517Z,21.30
2022-10-06T13:13:24.309Z,21.30
2022-10-06T13:16:00.707Z,21.30
2022-10-06T13:18:34.239Z,21.30
2022-10-06T13:21:16.334Z,21.30
2022-10-06T13:23:52.372Z,21.30
2022-10-06T13:26:29.407Z,21.30
2022-10-06T13:29:31.810Z,21.30
2022-10-06T13:32:17.978Z,21.30
2022-10-06T13:34:51.570Z,21.30
2022-10-06T13:37:25.236Z,21.20
2022-10-06T13:40:01.007Z,21.20
2022-10-06T13:42:35.107Z,21.20
2022-10-06T13:45:16.009Z,21.20
2022-10-06T13:48:19.298Z,21.20
2022-10-06T13:50:54.307Z,21.20
2022-10-06T13:53:31.684Z,21.20
2022-10-06T13:56:06.876Z,21.10
2022-10-06T13:58:40.441Z,21.10
2022-10-06T14:01:13.755Z,21.10
2022-10-06T14:03:47.163Z,21.10
2022-10-06T14:06:25.014Z,21.00
2022-10-06T14:09:02.217Z,21.20
2022-10-06T14:11:36.928Z,21.00
2022-10-06T14:14:18.420Z,20.90
2022-10-06T14:16:53.932Z,20.90
2022-10-06T14:19:39.001Z,20.90
2022-10-06T14:22:32.464Z,20.90
2022-10-06T14:25:15.801Z,20.80
2022-10-06T14:27:52.063Z,20.80
2022-10-06T14:30:25.424Z,20.70
2022-10-06T14:32:58.880Z,20.70
2022-10-06T14:35:32.545Z,20.60
2022-10-06T14:38:05.997Z,20.60
2022-10-06T14:40:42.505Z,20.60
2022-10-06T14:43:17.326Z,20.60
2022-10-06T14:45:51.105Z,20.60
2022-10-06T14:48:24.721Z,20.50
2022-10-06T14:50:58.002Z,20.50
2022-10-06T14:53:32.271Z,20.50
2022-10-06T14:56:09.090Z,20.50
2022-10-06T14:58:45.811Z,20.50
2022-10-06T15:01:22.315Z,20.50
2022-10-06T15:03:58.516Z,20.50
2022-10-06T15:06:49.445Z,20.40
2022-10-06T15:09:23.772Z,20.40
2022-10-06T15:11:57.657Z,20.40
2022-10-06T15:14:33.558Z,20.40
2022-10-06T15:17:07.216Z,20.40
2022-10-06T15:19:40.909Z,20.40
2022-10-06T15:22:14.158Z,20.40
2022-10-06T15:24:51.370Z,20.30
2022-10-06T15:27:42.786Z,20.30
2022-10-06T15:30:17.611Z,20.30
2022-10-06T15:32:51.108Z,20.30
2022-10-06T15:35:24.478Z,20.20
2022-10-06T15:37:57.875Z,20.20
2022-10-06T15:40:31.334Z,20.20
2022-10-06T15:43:04.649Z,20.10
2022-10-06T15:45:39.552Z,20.10
2022-10-06T15:48:13.117Z,20.10
2022-10-06T15:50:46.712Z,20.00
2022-10-06T15:53:22.586Z,20.00
2022-10-06T15:55:58.197Z,20.00
2022-10-06T15:58:31.973Z,19.90
2022-10-06T16:01:08.856Z,19.90
2022-10-06T16:03:44.334Z,19.90
2022-10-06T16:06:17.769Z,19.90
2022-10-06T16:08:51.245Z,19.80
2022-10-06T16:11:24.733Z,19.80
2022-10-06T16:13:58.065Z,19.80
2022-10-06T16:16:33.439Z,19.70
2022-10-06T16:19:06.904Z,19.70
2022-10-06T16:21:41.392Z,19.70
2022-10-06T16:24:14.624Z,19.60
2022-10-06T16:26:50.099Z,19.60
2022-10-06T16:29:24.147Z,19.60
2022-10-06T16:31:59.706Z,19.50
2022-10-06T16:34:33.414Z,19.50
2022-10-06T16:37:06.824Z,19.50
2022-10-06T16:39:40.258Z,19.40
2022-10-06T16:42:13.703Z,19.40
2022-10-06T16:44:46.965Z,19.30
2022-10-06T16:47:21.682Z,19.30
2022-10-06T16:49:55.116Z,19.30
2022-10-06T16:52:28.594Z,19.20
2022-10-06T16:55:02.858Z,19.20
2022-10-06T16:57:36.234Z,19.10
2022-10-06T17:00:12.191Z,19.10
2022-10-06T17:02:47.436Z,19.00
2022-10-06T17:05:20.866Z,19.00
2022-10-06T17:07:58.407Z,19.00
2022-10-06T17:10:32.333Z,18.90
2022-10-06T17:13:05.937Z,18.90
2022-10-06T17:15:39.299Z,18.80
2022-10-06T17:18:14.275Z,18.80
2022-10-06T17:20:56.088Z,18.70
2022-10-06T17:23:30.775Z,18.70
2022-10-06T17:26:12.469Z,18.60
2022-10-06T17:28:47.436Z,18.50
2022-10-06T17:31:23.728Z,18.50
2022-10-06T17:33:58.703Z,18.40
2022-10-06T17:36:32.415Z,18.40
2022-10-06T17:39:07.726Z,18.30
2022-10-06T17:41:43.131Z,18.20
2022-10-06T17:44:22.807Z,18.20
2022-10-06T17:46:59.299Z,18.10
2022-10-06T17:49:35.236Z,18.00
2022-10-06T17:52:08.848Z,18.00
2022-10-06T17:54:43.195Z,17.90
2022-10-06T17:57:16.739Z,17.80
2022-10-06T17:59:50.018Z,17.80
2022-10-06T18:02:23.599Z,17.70
2022-10-06T18:04:58.413Z,17.60
2022-10-06T18:07:31.878Z,17.50
2022-10-06T18:10:23.313Z,17.50
2022-10-06T18:12:56.661Z,17.40
2022-10-06T18:15:31.753Z,17.40
2022-10-06T18:18:05.925Z,17.30
2022-10-06T18:20:41.814Z,17.20
2022-10-06T18:23:15.511Z,17.20
2022-10-06T18:25:48.801Z,17.10
2022-10-06T18:28:22.213Z,17.00
2022-10-06T18:30:55.663Z,17.00
2022-10-06T18:36:24.484Z,16.90
2022-10-06T18:39:00.150Z,16.80
2022-10-06T18:41:33.610Z,16.80
2022-10-06T18:44:07.750Z,16.50
2022-10-06T18:46:58.923Z,16.70
2022-10-06T18:49:33.402Z,16.60
2022-10-06T18:52:08.437Z,16.60
2022-10-06T18:54:44.527Z,16.50
2022-10-06T18:57:18.048Z,16.50
2022-10-06T18:59:51.393Z,16.40
2022-10-06T19:02:26.335Z,16.40
2022-10-06T19:05:00.037Z,16.30
2022-10-06T19:07:34.733Z,16.20
2022-10-06T19:10:08.836Z,16.20
2022-10-06T19:12:42.227Z,16.10
2022-10-06T19:15:20.428Z,16.10
2022-10-06T19:17:55.363Z,16.00
2022-10-06T19:20:28.669Z,16.00
2022-10-06T19:23:04.341Z,15.90
2022-10-06T19:25:37.818Z,15.90
2022-10-06T19:28:11.158Z,15.80
2022-10-06T19:30:44.486Z,15.80
2022-10-06T19:33:17.854Z,15.70
2022-10-06T19:35:53.121Z,15.70
2022-10-06T19:38:29.267Z,15.60
2022-10-06T19:41:17.260Z,15.60
2022-10-06T19:43:51.361Z,15.50
2022-10-06T19:46:24.813Z,15.50
2022-10-06T19:49:05.427Z,15.50
2022-10-06T19:51:40.375Z,15.40
2022-10-06T19:54:15.356Z,15.40
2022-10-06T19:56:49.357Z,15.30
2022-10-06T19:59:23.433Z,15.30
2022-10-06T20:01:57.030Z,15.30
2022-10-06T20:04:30.643Z,15.20
2022-10-06T20:07:04.744Z,15.10
2022-10-06T20:09:39.923Z,15.10
2022-10-06T20:12:13.738Z,15.10
2022-10-06T20:14:47.237Z,15.00
2022-10-06T20:17:21.107Z,15.00
2022-10-06T20:19:57.875Z,15.00
2022-10-06T20:22:31.789Z,15.00
2022-10-06T20:25:07.422Z,14.90
2022-10-06T20:27:41.142Z,14.90
2022-10-06T20:30:14.735Z,14.90
2022-10-06T20:32:48.004Z,14.90
2022-10-06T20:35:21.287Z,14.90
2022-10-06T20:37:54.907Z,14.80
2022-10-06T20:40:42.718Z,14.80
2022-10-06T20:43:16.890Z,14.80
2022-10-06T20:45:50.296Z,14.80
2022-10-06T20:48:29.528Z,14.70
2022-10-06T20:51:02.914Z,14.70
2022-10-06T20:53:36.403Z,14.70
2022-10-06T20:56:11.454Z,14.60
2022-10-06T20:58:45.258Z,14.60
2022-10-06T21:01:21.811Z,14.60
2022-10-06T21:03:55.709Z,14.60
2022-10-06T21:06:30.420Z,14.60
2022-10-06T21:09:03.865Z,14.50
2022-10-06T21:11:38.637Z,14.50
2022-10-06T21:14:13.378Z,14.50
2022-10-06T21:16:49.852Z,14.40
2022-10-06T21:19:23.947Z,14.40
2022-10-06T21:21:57.248Z,14.30
2022-10-06T21:24:30.671Z,14.30
2022-10-06T21:27:05.422Z,14.30
2022-10-06T21:29:39.025Z,14.20
2022-10-06T21:32:12.485Z,14.20
2022-10-06T21:34:45.734Z,14.20
2022-10-06T21:37:19.141Z,14.10
2022-10-06T21:39:52.742Z,14.10
2022-10-06T21:42:27.648Z,14.10
2022-10-06T21:45:00.944Z,14.00
2022-10-06T21:47:34.621Z,14.00
2022-10-06T21:50:09.246Z,14.00
2022-10-06T21:52:42.460Z,14.00
2022-10-06T21:55:15.891Z,13.90
2022-10-06T21:57:50.721Z,13.90
2022-10-06T22:00:24.417Z,13.80
2022-10-06T22:02:57.751Z,13.80
2022-10-06T22:05:31.020Z,13.80
2022-10-06T22:08:04.286Z,13.80
2022-10-06T22:10:37.722Z,13.80
2022-10-06T22:13:12.345Z,13.70
2022-10-06T22:15:45.865Z,13.70
2022-10-06T22:18:19.183Z,13.70
2022-10-06T22:20:53.762Z,13.70
2022-10-06T22:23:27.224Z,13.70
2022-10-06T22:26:00.581Z,13.70
2022-10-06T22:28:35.357Z,13.70
2022-10-06T22:31:12.405Z,13.70
2022-10-06T22:33:50.652Z,13.70
2022-10-06T22:36:24.442Z,13.70
2022-10-06T22:38:58.571Z,13.70
2022-10-06T22:41:32.162Z,13.60
2022-10-06T22:44:07.133Z,13.60
2022-10-06T22:46:40.915Z,13.60
2022-10-06T22:49:14.693Z,13.60
2022-10-06T22:51:48.273Z,13.60
2022-10-06T22:54:22.428Z,13.50
2022-10-06T22:56:56.191Z,13.60
2022-10-06T22:59:30.951Z,13.60
2022-10-06T23:02:04.524Z,13.60
2022-10-06T23:04:37.891Z,13.60
2022-10-06T23:07:11.330Z,13.60
2022-10-06T23:09:44.625Z,13.50
2022-10-06T23:12:18.516Z,13.60
2022-10-06T23:14:53.147Z,13.50
2022-10-06T23:17:26.737Z,13.60
2022-10-06T23:20:00.046Z,13.50
2022-10-06T23:22:33.519Z,13.50
2022-10-06T23:25:09.946Z,13.60
2022-10-06T23:27:43.471Z,13.50
2022-10-06T23:30:18.935Z,13.50
2022-10-06T23:32:52.556Z,13.50
2022-10-06T23:35:25.905Z,13.50
2022-10-06T23:37:59.294Z,13.50
2022-10-06T23:40:32.596Z,13.50
2022-10-06T23:43:06.096Z,13.50
2022-10-06T23:45:40.874Z,13.40
2022-10-06T23:48:14.572Z,13.50
2022-10-06T23:50:58.136Z,13.40
2022-10-06T23:53:33.057Z,13.40
2022-10-06T23:56:07.530Z,13.40
2022-10-06T23:58:41.696Z,13.40
